الصفحة الرئيسية
METAR-TAF:

METAR-TAF

مطار :

كرايستشيرش, نيوزيلندا

دائرة عرض: 43-29S, خط طول: 172-33E, ارتفاع: 38 متر

مراقبة الطقس الحالي

تاريخ ووقت الإصدار 21 دقيقة قبل الساعة 03:00UTC
ريح 3 عقدة من الجنوب الغربي
درجة الحرارة 14°درجة مئوية
الرطوبة 58%
ضغط 1023 hPa
الرؤية 10 كم أو أكثر

METAR: NZCH 270300Z AUTO 22003KT 9999 NCD 14/06 Q1023 NOSIG

زمن: 15:21 (03:21 UTC)

توقعات

تاريخ ووقت الإصدار 4ساعات و 15 دقيقة قبل الساعة 23:06UTC
التوقعات صالحة من27 الساعة 00 UTC إلى 28 الساعة 00 UTC
ريح 5 عقدة من الغرب
الرؤية 10 كم أو أكثر
الغيوم لا تقل 1500 م ولا وجود لمزنة ركامية السحاب الأسود
نظرية الاحتمالات 40% :
مؤقت
من 27 الساعة 09 UTC إلى 27 الساعة 16 UTC
الرؤية: 1500 متر
غشاء
من 27 الساعة 2200 UTC
ريح 10 عقدة من الشرق/الشمال الشرقي
الرؤية 10 كم أو أكثر
غيوم متفرقة على ارتفاع 800 قدم

TAF: NZCH 262306Z 2700/2800 26005KT CAVOK PROB40 TEMPO 2709/2716 1500 BR FM272200 06010KT 9999 SCT008

أرصاد الطقس والتوقعات من أكثر من 4000 مطار (تقارير الطقس للمطار METAR والتنبؤ بالطقس بالمطارTAF).

المحطات المتاحة هي النقط الصفراء والحمراء على الخريطة.

حرك المؤشر فوق النقطة لمعرفة اسم المحطة.

ثم انقر لمعرفة أرصاد وتوقعات الطقس.

لتغيير الخارطة: اضغط على الأزرار الخضراء مع رمز الصليب الأسود للتكبير. على الزر الأخضر مع شرطة للتصغير، أو على الأسهم الخضراء للخرائط المجاورة.


METAR-TAF: